Check out our new PWSWeather beta!
PWSweather.com
Personal Weather Stations
Station Observations
KOMOKA
Komoka Village, Komoka, ON N0L IRO

Komoka VillageKomoka, ON N0L IRO

Lat: 42.9542444, Lon: -81.4348861

Elevation: 805

Station Type: Davis Vantage Pro 2

www.komokaweather.com

High Low Average
Temperature 33.1°F0.6°C 3.0°F-16.1°C 20.2°F-6.6°C
Dew Point 14.0°F-10.0°C -2.2°F-19.0°C 8.4°F-13.1°C
Winds 5.0 mph 8.0 kmh Calm Calm 1.0 mph NE1.6 kmh NE
Wind Gusts 12.0 mph19.3 kmh -- 4.0 mph6.4 kmh
Humidity 80% 40% 62%
Pressure 30.30 in1026.1 mb 30.16 in1021.3 mb -
Precipitation 0.09 in2.3 mm - -
Hour Temp Dew Point Humidity Winds Wind Gusts Pressure Precip Precip Rate Daily Precip Total
12:01 AM 16.9°F-8.4°C 10.6°F-11.9°C 76% Calm Calm 1.0 mph1.6 kmh 30.25 in1024.4 mb 0.00 in0.0 mm 0.00 in0.0 mm 0.00 in0.0 mm
12:08 AM 16.2°F-8.8°C 10.0°F-12.2°C 76% Calm Calm -- 30.25 in1024.4 mb 0.00 in0.0 mm 0.00 in0.0 mm 0.00 in0.0 mm
12:15 AM 15.6°F-9.1°C 9.5°F-12.5°C 76% Calm Calm -- 30.25 in1024.4 mb 0.00 in0.0 mm 0.00 in0.0 mm 0.00 in0.0 mm
12:22 AM 15.3°F-9.3°C 9.3°F-12.6°C 77% Calm Calm -- 30.25 in1024.4 mb 0.00 in0.0 mm 0.00 in0.0 mm 0.00 in0.0 mm
12:29 AM 14.5°F-9.7°C 9.0°F-12.8°C 78% Calm Calm -- 30.25 in1024.4 mb 0.00 in0.0 mm 0.00 in0.0 mm 0.00 in0.0 mm
12:36 AM 13.8°F-10.1°C 8.2°F-13.2°C 78% Calm Calm -- 30.24 in1024.0 mb 0.00 in0.0 mm 0.00 in0.0 mm 0.00 in0.0 mm
12:43 AM 13.8°F-10.1°C 8.2°F-13.2°C 78% Calm Calm -- 30.24 in1024.0 mb 0.00 in0.0 mm 0.00 in0.0 mm 0.00 in0.0 mm
12:50 AM 12.9°F-10.6°C 7.3°F-13.7°C 78% Calm Calm 1.0 mph1.6 kmh 30.24 in1024.0 mb 0.00 in0.0 mm 0.00 in0.0 mm 0.00 in0.0 mm
12:57 AM 12.7°F-10.7°C 7.3°F-13.7°C 79% Calm Calm 1.0 mph1.6 kmh 30.24 in1024.0 mb 0.00 in0.0 mm 0.00 in0.0 mm 0.00 in0.0 mm
01:04 AM 12.0°F-11.1°C 6.6°F-14.1°C 78% Calm Calm 1.0 mph1.6 kmh 30.25 in1024.4 mb 0.00 in0.0 mm 0.00 in0.0 mm 0.00 in0.0 mm
01:11 AM 12.2°F-11.0°C 7.0°F-13.9°C 79% Calm Calm 1.0 mph1.6 kmh 30.25 in1024.4 mb 0.00 in0.0 mm 0.00 in0.0 mm 0.00 in0.0 mm
01:18 AM 11.8°F-11.2°C 6.6°F-14.1°C 79% Calm Calm -- 30.25 in1024.4 mb 0.00 in0.0 mm 0.00 in0.0 mm 0.00 in0.0 mm
01:25 AM 11.7°F-11.3°C 6.3°F-14.3°C 79% Calm Calm -- 30.25 in1024.4 mb 0.00 in0.0 mm 0.00 in0.0 mm 0.00 in0.0 mm
01:32 AM 11.1°F-11.6°C 5.9°F-14.5°C 79% Calm Calm -- 30.24 in1024.0 mb 0.00 in0.0 mm 0.00 in0.0 mm 0.00 in0.0 mm
02:08 AM 9.0°F-12.8°C 3.7°F-15.7°C 79% Calm Calm 1.0 mph1.6 kmh 30.25 in1024.4 mb 0.00 in0.0 mm 0.00 in0.0 mm 0.00 in0.0 mm
02:20 AM 8.4°F-13.1°C 3.4°F-15.9°C 79% Calm Calm 1.0 mph1.6 kmh 30.25 in1024.4 mb 0.00 in0.0 mm 0.00 in0.0 mm 0.00 in0.0 mm
02:27 AM 8.2°F-13.2°C 3.2°F-16.0°C 79% Calm Calm 1.0 mph1.6 kmh 30.25 in1024.4 mb 0.00 in0.0 mm 0.00 in0.0 mm 0.00 in0.0 mm
02:34 AM 8.2°F-13.2°C 3.0°F-16.1°C 79% Calm Calm -- 30.24 in1024.0 mb 0.00 in0.0 mm 0.00 in0.0 mm 0.00 in0.0 mm
02:41 AM 7.9°F-13.4°C 2.7°F-16.3°C 79% Calm Calm -- 30.25 in1024.4 mb 0.00 in0.0 mm 0.00 in0.0 mm 0.00 in0.0 mm
02:48 AM 7.5°F-13.6°C 2.3°F-16.5°C 79% Calm Calm 1.0 mph1.6 kmh 30.25 in1024.4 mb 0.00 in0.0 mm 0.00 in0.0 mm 0.00 in0.0 mm
02:55 AM 7.3°F-13.7°C 2.3°F-16.5°C 79% Calm Calm -- 30.25 in1024.4 mb 0.00 in0.0 mm 0.00 in0.0 mm 0.00 in0.0 mm
03:02 AM 7.3°F-13.7°C 2.3°F-16.5°C 79% Calm Calm 1.0 mph1.6 kmh 30.25 in1024.4 mb 0.00 in0.0 mm 0.00 in0.0 mm 0.00 in0.0 mm
03:09 AM 7.0°F-13.9°C 1.9°F-16.7°C 79% Calm Calm 1.0 mph1.6 kmh 30.25 in1024.4 mb 0.00 in0.0 mm 0.00 in0.0 mm 0.00 in0.0 mm
03:16 AM 7.0°F-13.9°C 1.8°F-16.8°C 79% Calm Calm 1.0 mph1.6 kmh 30.25 in1024.4 mb 0.00 in0.0 mm 0.00 in0.0 mm 0.00 in0.0 mm
03:23 AM 6.4°F-14.2°C 1.2°F-17.1°C 79% Calm Calm 1.0 mph1.6 kmh 30.24 in1024.0 mb 0.00 in0.0 mm 0.00 in0.0 mm 0.00 in0.0 mm
03:30 AM 6.3°F-14.3°C 1.0°F-17.2°C 79% Calm Calm 1.0 mph1.6 kmh 30.24 in1024.0 mb 0.00 in0.0 mm 0.00 in0.0 mm 0.00 in0.0 mm
03:37 AM 6.3°F-14.3°C 1.0°F-17.2°C 79% Calm Calm 1.0 mph1.6 kmh 30.25 in1024.4 mb 0.00 in0.0 mm 0.00 in0.0 mm 0.00 in0.0 mm
03:44 AM 6.3°F-14.3°C 1.0°F-17.2°C 79% Calm Calm 1.0 mph1.6 kmh 30.25 in1024.4 mb 0.00 in0.0 mm 0.00 in0.0 mm 0.00 in0.0 mm
03:51 AM 6.1°F-14.4°C 0.9°F-17.3°C 79% Calm Calm -- 30.25 in1024.4 mb 0.00 in0.0 mm 0.00 in0.0 mm 0.00 in0.0 mm
03:58 AM 5.9°F-14.5°C 0.9°F-17.3°C 79% Calm Calm -- 30.25 in1024.4 mb 0.00 in0.0 mm 0.00 in0.0 mm 0.00 in0.0 mm
04:05 AM 5.7°F-14.6°C 0.7°F-17.4°C 79% Calm Calm -- 30.25 in1024.4 mb 0.00 in0.0 mm 0.00 in0.0 mm 0.00 in0.0 mm
04:12 AM 5.5°F-14.7°C 0.5°F-17.5°C 79% Calm Calm -- 30.25 in1024.4 mb 0.00 in0.0 mm 0.00 in0.0 mm 0.00 in0.0 mm
04:19 AM 5.4°F-14.8°C 0.1°F-17.7°C 79% Calm Calm -- 30.25 in1024.4 mb 0.00 in0.0 mm 0.00 in0.0 mm 0.00 in0.0 mm
04:26 AM 5.4°F-14.8°C 0.1°F-17.7°C 79% Calm Calm -- 30.26 in1024.7 mb 0.00 in0.0 mm 0.00 in0.0 mm 0.00 in0.0 mm
04:33 AM 5.4°F-14.8°C 0.3°F-17.6°C 79% Calm Calm -- 30.26 in1024.7 mb 0.00 in0.0 mm 0.00 in0.0 mm 0.00 in0.0 mm
04:40 AM 5.4°F-14.8°C 0.1°F-17.7°C 79% Calm Calm -- 30.26 in1024.7 mb 0.00 in0.0 mm 0.00 in0.0 mm 0.00 in0.0 mm
04:47 AM 5.2°F-14.9°C 0.1°F-17.7°C 79% Calm Calm -- 30.26 in1024.7 mb 0.00 in0.0 mm 0.00 in0.0 mm 0.00 in0.0 mm
04:54 AM 4.8°F-15.1°C -0.2°F-17.9°C 79% Calm Calm -- 30.27 in1025.1 mb 0.00 in0.0 mm 0.00 in0.0 mm 0.00 in0.0 mm
05:01 AM 5.0°F-15.0°C 0.0°F-17.8°C 79% Calm Calm -- 30.27 in1025.1 mb 0.00 in0.0 mm 0.00 in0.0 mm 0.00 in0.0 mm
05:08 AM 4.5°F-15.3°C -0.8°F-18.2°C 78% Calm Calm 1.0 mph1.6 kmh 30.27 in1025.1 mb 0.00 in0.0 mm 0.00 in0.0 mm 0.00 in0.0 mm
05:15 AM 4.3°F-15.4°C -0.8°F-18.2°C 79% Calm Calm -- 30.27 in1025.1 mb 0.00 in0.0 mm 0.00 in0.0 mm 0.00 in0.0 mm
05:22 AM 4.3°F-15.4°C -1.1°F-18.4°C 78% Calm Calm -- 30.27 in1025.1 mb 0.00 in0.0 mm 0.00 in0.0 mm 0.00 in0.0 mm
05:29 AM 4.5°F-15.3°C -0.9°F-18.3°C 78% Calm Calm 1.0 mph1.6 kmh 30.27 in1025.1 mb 0.00 in0.0 mm 0.00 in0.0 mm 0.00 in0.0 mm
05:36 AM 4.3°F-15.4°C -1.1°F-18.4°C 78% Calm Calm -- 30.28 in1025.4 mb 0.00 in0.0 mm 0.00 in0.0 mm 0.00 in0.0 mm
05:43 AM 4.1°F-15.5°C -1.3°F-18.5°C 78% Calm Calm 1.0 mph1.6 kmh 30.28 in1025.4 mb 0.00 in0.0 mm 0.00 in0.0 mm 0.00 in0.0 mm
05:50 AM 3.9°F-15.6°C -1.3°F-18.5°C 78% Calm Calm 1.0 mph1.6 kmh 30.28 in1025.4 mb 0.00 in0.0 mm 0.00 in0.0 mm 0.00 in0.0 mm
05:57 AM 4.3°F-15.4°C -0.9°F-18.3°C 79% 1.0 mph ESE1.6 kmh ESE 1.0 mph1.6 kmh 30.28 in1025.4 mb 0.00 in0.0 mm 0.00 in0.0 mm 0.00 in0.0 mm
06:04 AM 4.3°F-15.4°C -1.1°F-18.4°C 78% 1.0 mph SE1.6 kmh SE 1.0 mph1.6 kmh 30.28 in1025.4 mb 0.00 in0.0 mm 0.00 in0.0 mm 0.00 in0.0 mm
06:11 AM 3.9°F-15.6°C -1.5°F-18.6°C 78% Calm Calm 1.0 mph1.6 kmh 30.28 in1025.4 mb 0.00 in0.0 mm 0.00 in0.0 mm 0.00 in0.0 mm
06:18 AM 3.7°F-15.7°C -1.5°F-18.6°C 78% Calm Calm -- 30.28 in1025.4 mb 0.00 in0.0 mm 0.00 in0.0 mm 0.00 in0.0 mm
06:25 AM 3.6°F-15.8°C -1.7°F-18.7°C 78% Calm Calm -- 30.29 in1025.7 mb 0.00 in0.0 mm 0.00 in0.0 mm 0.00 in0.0 mm
06:32 AM 3.6°F-15.8°C -1.7°F-18.7°C 78% Calm Calm -- 30.29 in1025.7 mb 0.00 in0.0 mm 0.00 in0.0 mm 0.00 in0.0 mm
06:39 AM 3.6°F-15.8°C -1.7°F-18.7°C 78% Calm Calm -- 30.29 in1025.7 mb 0.00 in0.0 mm 0.00 in0.0 mm 0.00 in0.0 mm
06:46 AM 3.4°F-15.9°C -2.0°F-18.9°C 78% Calm Calm -- 30.29 in1025.7 mb 0.00 in0.0 mm 0.00 in0.0 mm 0.00 in0.0 mm
06:53 AM 3.0°F-16.1°C -2.2°F-19.0°C 78% Calm Calm 1.0 mph1.6 kmh 30.29 in1025.7 mb 0.00 in0.0 mm 0.00 in0.0 mm 0.00 in0.0 mm
07:00 AM 3.6°F-15.8°C -1.5°F-18.6°C 79% Calm Calm 1.0 mph1.6 kmh 30.29 in1025.7 mb 0.00 in0.0 mm 0.00 in0.0 mm 0.00 in0.0 mm
07:07 AM 3.4°F-15.9°C -1.8°F-18.8°C 78% Calm Calm 1.0 mph1.6 kmh 30.29 in1025.7 mb 0.00 in0.0 mm 0.00 in0.0 mm 0.00 in0.0 mm
07:14 AM 3.4°F-15.9°C -2.0°F-18.9°C 78% Calm Calm 1.0 mph1.6 kmh 30.29 in1025.7 mb 0.00 in0.0 mm 0.00 in0.0 mm 0.00 in0.0 mm
07:21 AM 3.7°F-15.7°C -1.3°F-18.5°C 79% 1.0 mph SE1.6 kmh SE 1.0 mph1.6 kmh 30.29 in1025.7 mb 0.00 in0.0 mm 0.00 in0.0 mm 0.00 in0.0 mm
07:28 AM 4.3°F-15.4°C -0.9°F-18.3°C 79% Calm Calm 1.0 mph1.6 kmh 30.29 in1025.7 mb 0.00 in0.0 mm 0.00 in0.0 mm 0.00 in0.0 mm
07:35 AM 4.8°F-15.1°C -0.2°F-17.9°C 79% 1.0 mph SE1.6 kmh SE 3.0 mph4.8 kmh 30.29 in1025.7 mb 0.00 in0.0 mm 0.00 in0.0 mm 0.00 in0.0 mm
07:42 AM 5.2°F-14.9°C 0.1°F-17.7°C 79% 1.0 mph SE1.6 kmh SE 3.0 mph4.8 kmh 30.29 in1025.7 mb 0.00 in0.0 mm 0.00 in0.0 mm 0.00 in0.0 mm
07:49 AM 6.1°F-14.4°C 0.9°F-17.3°C 79% 1.0 mph SE1.6 kmh SE 3.0 mph4.8 kmh 30.29 in1025.7 mb 0.00 in0.0 mm 0.00 in0.0 mm 0.00 in0.0 mm
07:56 AM 7.3°F-13.7°C 2.5°F-16.4°C 80% 1.0 mph E1.6 kmh E 4.0 mph6.4 kmh 30.29 in1025.7 mb 0.00 in0.0 mm 0.00 in0.0 mm 0.00 in0.0 mm
08:03 AM 8.2°F-13.2°C 3.0°F-16.1°C 79% 1.0 mph E1.6 kmh E 3.0 mph4.8 kmh 30.29 in1025.7 mb 0.00 in0.0 mm 0.00 in0.0 mm 0.00 in0.0 mm
08:10 AM 9.1°F-12.7°C 3.9°F-15.6°C 79% 1.0 mph E1.6 kmh E 3.0 mph4.8 kmh 30.29 in1025.7 mb 0.00 in0.0 mm 0.00 in0.0 mm 0.00 in0.0 mm
08:17 AM 10.2°F-12.1°C 5.0°F-15.0°C 79% Calm Calm 1.0 mph1.6 kmh 30.29 in1025.7 mb 0.00 in0.0 mm 0.00 in0.0 mm 0.00 in0.0 mm
08:24 AM 10.9°F-11.7°C 5.7°F-14.6°C 79% 1.0 mph E1.6 kmh E 1.0 mph1.6 kmh 30.29 in1025.7 mb 0.00 in0.0 mm 0.00 in0.0 mm 0.00 in0.0 mm
08:31 AM 11.8°F-11.2°C 6.6°F-14.1°C 79% 1.0 mph E1.6 kmh E 3.0 mph4.8 kmh 30.29 in1025.7 mb 0.00 in0.0 mm 0.00 in0.0 mm 0.00 in0.0 mm
08:38 AM 12.9°F-10.6°C 7.7°F-13.5°C 79% 1.0 mph E1.6 kmh E 1.0 mph1.6 kmh 30.29 in1025.7 mb 0.00 in0.0 mm 0.00 in0.0 mm 0.00 in0.0 mm
08:45 AM 14.0°F-10.0°C 8.4°F-13.1°C 78% Calm Calm -- 30.30 in1026.1 mb 0.00 in0.0 mm 0.00 in0.0 mm 0.00 in0.0 mm
08:52 AM 15.1°F-9.4°C 9.1°F-12.7°C 77% 1.0 mph NE1.6 kmh NE 4.0 mph6.4 kmh 30.29 in1025.7 mb 0.00 in0.0 mm 0.00 in0.0 mm 0.00 in0.0 mm
08:59 AM 16.0°F-8.9°C 9.7°F-12.4°C 76% 3.0 mph NE4.8 kmh NE 4.0 mph6.4 kmh 30.30 in1026.1 mb 0.00 in0.0 mm 0.00 in0.0 mm 0.00 in0.0 mm
09:06 AM 17.1°F-8.3°C 10.4°F-12.0°C 75% 3.0 mph NE4.8 kmh NE 4.0 mph6.4 kmh 30.30 in1026.1 mb 0.00 in0.0 mm 0.00 in0.0 mm 0.00 in0.0 mm
09:13 AM 18.0°F-7.8°C 10.8°F-11.8°C 73% 3.0 mph NE4.8 kmh NE 4.0 mph6.4 kmh 30.29 in1025.7 mb 0.00 in0.0 mm 0.00 in0.0 mm 0.00 in0.0 mm
09:20 AM 18.9°F-7.3°C 11.3°F-11.5°C 72% 3.0 mph NE4.8 kmh NE 4.0 mph6.4 kmh 30.29 in1025.7 mb 0.00 in0.0 mm 0.00 in0.0 mm 0.00 in0.0 mm
09:27 AM 19.8°F-6.8°C 11.8°F-11.2°C 71% 1.0 mph NE1.6 kmh NE 4.0 mph6.4 kmh 30.29 in1025.7 mb 0.00 in0.0 mm 0.00 in0.0 mm 0.00 in0.0 mm
09:34 AM 20.7°F-6.3°C 12.0°F-11.1°C 69% 1.0 mph N1.6 kmh N 4.0 mph6.4 kmh 30.29 in1025.7 mb 0.00 in0.0 mm 0.00 in0.0 mm 0.00 in0.0 mm
09:41 AM 21.4°F-5.9°C 12.7°F-10.7°C 69% 1.0 mph N1.6 kmh N 4.0 mph6.4 kmh 30.29 in1025.7 mb 0.00 in0.0 mm 0.00 in0.0 mm 0.00 in0.0 mm
09:48 AM 22.1°F-5.5°C 13.1°F-10.5°C 68% 1.0 mph N1.6 kmh N 4.0 mph6.4 kmh 30.29 in1025.7 mb 0.00 in0.0 mm 0.00 in0.0 mm 0.00 in0.0 mm
09:55 AM 22.8°F-5.1°C 12.4°F-10.9°C 64% 1.0 mph N1.6 kmh N 4.0 mph6.4 kmh 30.28 in1025.4 mb 0.00 in0.0 mm 0.00 in0.0 mm 0.00 in0.0 mm
10:02 AM 23.5°F-4.7°C 13.1°F-10.5°C 64% 1.0 mph NNE1.6 kmh NNE 4.0 mph6.4 kmh 30.28 in1025.4 mb 0.00 in0.0 mm 0.00 in0.0 mm 0.00 in0.0 mm
10:09 AM 23.4°F-4.8°C 12.2°F-11.0°C 62% 1.0 mph NE1.6 kmh NE 4.0 mph6.4 kmh 30.28 in1025.4 mb 0.00 in0.0 mm 0.00 in0.0 mm 0.00 in0.0 mm
10:16 AM 23.9°F-4.5°C 12.0°F-11.1°C 60% 1.0 mph NE1.6 kmh NE 4.0 mph6.4 kmh 30.27 in1025.1 mb 0.00 in0.0 mm 0.00 in0.0 mm 0.00 in0.0 mm
10:23 AM 25.2°F-3.8°C 13.1°F-10.5°C 60% 3.0 mph E4.8 kmh E 4.0 mph6.4 kmh 30.27 in1025.1 mb 0.01 in0.3 mm 0.09 in2.3 mm 0.01 in0.3 mm
10:30 AM 24.4°F-4.2°C 10.9°F-11.7°C 56% 1.0 mph E1.6 kmh E 4.0 mph6.4 kmh 30.28 in1025.4 mb 0.01 in0.3 mm 0.00 in0.0 mm 0.01 in0.3 mm
10:37 AM 24.8°F-4.0°C 11.3°F-11.5°C 56% 1.0 mph E1.6 kmh E 4.0 mph6.4 kmh 30.27 in1025.1 mb 0.01 in0.3 mm 0.00 in0.0 mm 0.01 in0.3 mm
10:44 AM 25.2°F-3.8°C 10.0°F-12.2°C 52% 1.0 mph ESE1.6 kmh ESE 5.0 mph8.0 kmh 30.27 in1025.1 mb 0.01 in0.3 mm 0.00 in0.0 mm 0.01 in0.3 mm
10:51 AM 25.2°F-3.8°C 9.1°F-12.7°C 50% 3.0 mph SSE4.8 kmh SSE 5.0 mph8.0 kmh 30.27 in1025.1 mb 0.01 in0.3 mm 0.00 in0.0 mm 0.01 in0.3 mm
10:58 AM 26.2°F-3.2°C 11.8°F-11.2°C 54% 1.0 mph ESE1.6 kmh ESE 4.0 mph6.4 kmh 30.27 in1025.1 mb 0.01 in0.3 mm 0.00 in0.0 mm 0.01 in0.3 mm
11:05 AM 27.0°F-2.8°C 11.7°F-11.3°C 52% 3.0 mph NE4.8 kmh NE 5.0 mph8.0 kmh 30.27 in1025.1 mb 0.01 in0.3 mm 0.00 in0.0 mm 0.01 in0.3 mm
11:12 AM 27.3°F-2.6°C 8.8°F-12.9°C 45% 3.0 mph ENE4.8 kmh ENE 5.0 mph8.0 kmh 30.27 in1025.1 mb 0.01 in0.3 mm 0.00 in0.0 mm 0.01 in0.3 mm
11:19 AM 28.0°F-2.2°C 8.4°F-13.1°C 43% 3.0 mph NNE4.8 kmh NNE 7.0 mph11.3 kmh 30.27 in1025.1 mb 0.01 in0.3 mm 0.00 in0.0 mm 0.01 in0.3 mm
11:26 AM 27.7°F-2.4°C 9.1°F-12.7°C 45% 3.0 mph N4.8 kmh N 7.0 mph11.3 kmh 30.27 in1025.1 mb 0.00 in0.0 mm 0.00 in0.0 mm 0.01 in0.3 mm
11:33 AM 28.4°F-2.0°C 10.8°F-11.8°C 47% 3.0 mph N4.8 kmh N 7.0 mph11.3 kmh 30.27 in1025.1 mb 0.01 in0.3 mm 0.09 in2.3 mm 0.02 in0.5 mm
11:40 AM 30.4°F-0.9°C 12.0°F-11.1°C 46% 4.0 mph N6.4 kmh N 8.0 mph12.9 kmh 30.27 in1025.1 mb 0.01 in0.3 mm 0.00 in0.0 mm 0.02 in0.5 mm
11:47 AM 29.5°F-1.4°C 9.7°F-12.4°C 43% 4.0 mph N6.4 kmh N 8.0 mph12.9 kmh 30.28 in1025.4 mb 0.01 in0.3 mm 0.00 in0.0 mm 0.02 in0.5 mm
11:54 AM 29.8°F-1.2°C 10.6°F-11.9°C 44% 3.0 mph N4.8 kmh N 8.0 mph12.9 kmh 30.28 in1025.4 mb 0.01 in0.3 mm 0.00 in0.0 mm 0.02 in0.5 mm
12:01 PM 30.6°F-0.8°C 11.3°F-11.5°C 44% 4.0 mph N6.4 kmh N 8.0 mph12.9 kmh 30.28 in1025.4 mb 0.02 in0.5 mm 0.01 in0.3 mm 0.02 in0.5 mm
12:08 PM 30.4°F-0.9°C 11.5°F-11.4°C 45% 4.0 mph N6.4 kmh N 8.0 mph12.9 kmh 30.28 in1025.4 mb 0.02 in0.5 mm 0.00 in0.0 mm 0.02 in0.5 mm
12:15 PM 30.2°F-1.0°C 10.4°F-12.0°C 43% 4.0 mph N6.4 kmh N 8.0 mph12.9 kmh 30.28 in1025.4 mb 0.02 in0.5 mm 0.00 in0.0 mm 0.02 in0.5 mm
12:22 PM 30.9°F-0.6°C 12.0°F-11.1°C 45% 3.0 mph N4.8 kmh N 7.0 mph11.3 kmh 30.28 in1025.4 mb 0.02 in0.5 mm 0.00 in0.0 mm 0.02 in0.5 mm
12:29 PM 31.1°F-0.5°C 11.7°F-11.3°C 44% 3.0 mph NNE4.8 kmh NNE 7.0 mph11.3 kmh 30.28 in1025.4 mb 0.02 in0.5 mm 0.00 in0.0 mm 0.03 in0.8 mm
12:36 PM 30.9°F-0.6°C 11.5°F-11.4°C 44% 3.0 mph NNE4.8 kmh NNE 7.0 mph11.3 kmh 30.28 in1025.4 mb 0.02 in0.5 mm 0.00 in0.0 mm 0.03 in0.8 mm
12:52 PM 32.4°F0.2°C 11.8°F-11.2°C 42% 4.0 mph NE6.4 kmh NE 7.0 mph11.3 kmh 30.27 in1025.1 mb 0.02 in0.5 mm 0.00 in0.0 mm 0.04 in1.0 mm
12:59 PM 32.2°F0.1°C 12.7°F-10.7°C 44% 4.0 mph N6.4 kmh N 7.0 mph11.3 kmh 30.27 in1025.1 mb 0.02 in0.5 mm 0.00 in0.0 mm 0.04 in1.0 mm
01:13 PM 32.4°F0.2°C 12.4°F-10.9°C 43% 3.0 mph N4.8 kmh N 7.0 mph11.3 kmh 30.26 in1024.7 mb 0.02 in0.5 mm 0.00 in0.0 mm 0.05 in1.3 mm
01:21 PM 32.2°F0.1°C 12.0°F-11.1°C 43% 3.0 mph N4.8 kmh N 8.0 mph12.9 kmh 30.25 in1024.4 mb 0.02 in0.5 mm 0.00 in0.0 mm 0.05 in1.3 mm
01:27 PM 32.0°F0.0°C 11.5°F-11.4°C 42% 4.0 mph N6.4 kmh N 8.0 mph12.9 kmh 30.24 in1024.0 mb 0.02 in0.5 mm 0.00 in0.0 mm 0.06 in1.5 mm
01:34 PM 32.2°F0.1°C 12.0°F-11.1°C 43% 4.0 mph N6.4 kmh N 8.0 mph12.9 kmh 30.24 in1024.0 mb 0.02 in0.5 mm 0.00 in0.0 mm 0.06 in1.5 mm
01:41 PM 32.2°F0.1°C 10.4°F-12.0°C 40% 4.0 mph NNE6.4 kmh NNE 9.0 mph14.5 kmh 30.23 in1023.7 mb 0.02 in0.5 mm 0.00 in0.0 mm 0.06 in1.5 mm
01:48 PM 32.0°F0.0°C 10.9°F-11.7°C 41% 5.0 mph NNE8.0 kmh NNE 9.0 mph14.5 kmh 30.23 in1023.7 mb 0.02 in0.5 mm 0.00 in0.0 mm 0.06 in1.5 mm
02:00 PM 32.7°F0.4°C 11.7°F-11.3°C 41% 4.0 mph N6.4 kmh N 8.0 mph12.9 kmh 30.23 in1023.7 mb 0.02 in0.5 mm 0.00 in0.0 mm 0.06 in1.5 mm
02:07 PM 32.5°F0.3°C 11.8°F-11.2°C 42% 4.0 mph N6.4 kmh N 8.0 mph12.9 kmh 30.23 in1023.7 mb 0.02 in0.5 mm 0.00 in0.0 mm 0.06 in1.5 mm
02:14 PM 33.1°F0.6°C 13.5°F-10.3°C 44% 4.0 mph NNE6.4 kmh NNE 7.0 mph11.3 kmh 30.22 in1023.4 mb 0.02 in0.5 mm 0.00 in0.0 mm 0.06 in1.5 mm
02:21 PM 33.1°F0.6°C 12.9°F-10.6°C 43% 4.0 mph NE6.4 kmh NE 8.0 mph12.9 kmh 30.22 in1023.4 mb 0.02 in0.5 mm 0.00 in0.0 mm 0.07 in1.8 mm
02:28 PM 32.5°F0.3°C 12.0°F-11.1°C 42% 4.0 mph NE6.4 kmh NE 8.0 mph12.9 kmh 30.21 in1023.0 mb 0.02 in0.5 mm 0.00 in0.0 mm 0.07 in1.8 mm
02:35 PM 32.4°F0.2°C 11.8°F-11.2°C 42% 3.0 mph NNE4.8 kmh NNE 8.0 mph12.9 kmh 30.21 in1023.0 mb 0.02 in0.5 mm 0.00 in0.0 mm 0.07 in1.8 mm
02:42 PM 32.4°F0.2°C 12.4°F-10.9°C 43% 4.0 mph NNE6.4 kmh NNE 9.0 mph14.5 kmh 30.21 in1023.0 mb 0.02 in0.5 mm 0.00 in0.0 mm 0.07 in1.8 mm
02:49 PM 32.4°F0.2°C 12.9°F-10.6°C 44% 3.0 mph N4.8 kmh N 8.0 mph12.9 kmh 30.21 in1023.0 mb 0.02 in0.5 mm 0.00 in0.0 mm 0.07 in1.8 mm
02:56 PM 32.2°F0.1°C 12.6°F-10.8°C 44% 4.0 mph N6.4 kmh N 8.0 mph12.9 kmh 30.21 in1023.0 mb 0.01 in0.3 mm 0.00 in0.0 mm 0.07 in1.8 mm
03:03 PM 32.0°F0.0°C 12.0°F-11.1°C 43% 5.0 mph NNE8.0 kmh NNE 9.0 mph14.5 kmh 30.20 in1022.7 mb 0.02 in0.5 mm 0.01 in0.3 mm 0.08 in2.0 mm
03:10 PM 31.8°F-0.1°C 12.4°F-10.9°C 42% 5.0 mph NNE8.0 kmh NNE 12.0 mph19.3 kmh 30.20 in1022.7 mb 0.02 in0.5 mm 0.00 in0.0 mm 0.08 in2.0 mm
03:17 PM 31.5°F-0.3°C 11.5°F-11.4°C 43% 5.0 mph NNE8.0 kmh NNE 9.0 mph14.5 kmh 30.20 in1022.7 mb 0.02 in0.5 mm 0.00 in0.0 mm 0.08 in2.0 mm
03:24 PM 31.6°F-0.2°C 11.7°F-11.3°C 43% 4.0 mph NE6.4 kmh NE 9.0 mph14.5 kmh 30.20 in1022.7 mb 0.01 in0.3 mm 0.00 in0.0 mm 0.08 in2.0 mm
03:31 PM 32.2°F0.1°C 13.1°F-10.5°C 45% 4.0 mph NNE6.4 kmh NNE 9.0 mph14.5 kmh 30.20 in1022.7 mb 0.01 in0.3 mm 0.00 in0.0 mm 0.08 in2.0 mm
03:38 PM 32.2°F0.1°C 12.7°F-10.7°C 44% 5.0 mph NNE8.0 kmh NNE 9.0 mph14.5 kmh 30.20 in1022.7 mb 0.01 in0.3 mm 0.00 in0.0 mm 0.08 in2.0 mm
03:46 PM 32.2°F0.1°C 12.6°F-10.8°C 44% 4.0 mph N6.4 kmh N 9.0 mph14.5 kmh 30.20 in1022.7 mb 0.02 in0.5 mm 0.08 in2.0 mm 0.09 in2.3 mm
03:52 PM 31.8°F-0.1°C 12.9°F-10.6°C 45% 4.0 mph NNE6.4 kmh NNE 8.0 mph12.9 kmh 30.20 in1022.7 mb 0.02 in0.5 mm 0.00 in0.0 mm 0.09 in2.3 mm
03:59 PM 32.0°F0.0°C 12.0°F-11.1°C 43% 4.0 mph NE6.4 kmh NE 7.0 mph11.3 kmh 30.20 in1022.7 mb 0.01 in0.3 mm 0.00 in0.0 mm 0.09 in2.3 mm
04:06 PM 32.0°F0.0°C 12.6°F-10.8°C 44% 3.0 mph NE4.8 kmh NE 7.0 mph11.3 kmh 30.20 in1022.7 mb 0.01 in0.3 mm 0.00 in0.0 mm 0.09 in2.3 mm
04:13 PM 32.5°F0.3°C 11.5°F-11.4°C 41% 3.0 mph NE4.8 kmh NE 7.0 mph11.3 kmh 30.21 in1023.0 mb 0.01 in0.3 mm 0.00 in0.0 mm 0.09 in2.3 mm
04:20 PM 32.2°F0.1°C 10.6°F-11.9°C 42% 3.0 mph NE4.8 kmh NE 5.0 mph8.0 kmh 30.21 in1023.0 mb 0.01 in0.3 mm 0.00 in0.0 mm 0.09 in2.3 mm
04:27 PM 32.4°F0.2°C 12.2°F-11.0°C 43% 4.0 mph NE6.4 kmh NE 7.0 mph11.3 kmh 30.21 in1023.0 mb 0.01 in0.3 mm 0.00 in0.0 mm 0.09 in2.3 mm
04:34 PM 31.8°F-0.1°C 10.8°F-11.8°C 41% 3.0 mph E4.8 kmh E 7.0 mph11.3 kmh 30.20 in1022.7 mb 0.01 in0.3 mm 0.00 in0.0 mm 0.09 in2.3 mm
04:41 PM 31.6°F-0.2°C 10.6°F-11.9°C 41% 3.0 mph ENE4.8 kmh ENE 7.0 mph11.3 kmh 30.20 in1022.7 mb 0.01 in0.3 mm 0.00 in0.0 mm 0.09 in2.3 mm
04:48 PM 31.5°F-0.3°C 10.4°F-12.0°C 41% 3.0 mph ENE4.8 kmh ENE 4.0 mph6.4 kmh 30.20 in1022.7 mb 0.00 in0.0 mm 0.00 in0.0 mm 0.09 in2.3 mm
04:55 PM 30.9°F-0.6°C 12.2°F-11.0°C 45% 1.0 mph E1.6 kmh E 4.0 mph6.4 kmh 30.20 in1022.7 mb 0.00 in0.0 mm 0.00 in0.0 mm 0.09 in2.3 mm
05:02 PM 30.6°F-0.8°C 11.7°F-11.3°C 45% 1.0 mph E1.6 kmh E 4.0 mph6.4 kmh 30.20 in1022.7 mb 0.00 in0.0 mm 0.00 in0.0 mm 0.09 in2.3 mm
05:09 PM 30.0°F-1.1°C 11.8°F-11.2°C 46% 1.0 mph SE1.6 kmh SE 4.0 mph6.4 kmh 30.20 in1022.7 mb 0.00 in0.0 mm 0.00 in0.0 mm 0.09 in2.3 mm
05:16 PM 29.8°F-1.2°C 11.7°F-11.3°C 46% 1.0 mph SE1.6 kmh SE 4.0 mph6.4 kmh 30.19 in1022.4 mb 0.00 in0.0 mm 0.00 in0.0 mm 0.09 in2.3 mm
05:23 PM 29.7°F-1.3°C 12.4°F-10.9°C 48% 1.0 mph SE1.6 kmh SE 3.0 mph4.8 kmh 30.19 in1022.4 mb 0.00 in0.0 mm 0.00 in0.0 mm 0.09 in2.3 mm
05:30 PM 29.5°F-1.4°C 11.7°F-11.3°C 47% 1.0 mph ESE1.6 kmh ESE 3.0 mph4.8 kmh 30.19 in1022.4 mb 0.00 in0.0 mm 0.00 in0.0 mm 0.09 in2.3 mm
05:37 PM 29.3°F-1.5°C 12.6°F-10.8°C 49% 1.0 mph ESE1.6 kmh ESE 3.0 mph4.8 kmh 30.19 in1022.4 mb 0.00 in0.0 mm 0.00 in0.0 mm 0.09 in2.3 mm
05:44 PM 28.8°F-1.8°C 12.0°F-11.1°C 49% 1.0 mph ESE1.6 kmh ESE 3.0 mph4.8 kmh 30.19 in1022.4 mb 0.00 in0.0 mm 0.00 in0.0 mm 0.09 in2.3 mm
05:51 PM 28.6°F-1.9°C 12.2°F-11.0°C 50% 1.0 mph ESE1.6 kmh ESE 3.0 mph4.8 kmh 30.19 in1022.4 mb 0.00 in0.0 mm 0.00 in0.0 mm 0.09 in2.3 mm
05:58 PM 28.2°F-2.1°C 11.1°F-11.6°C 48% 1.0 mph ESE1.6 kmh ESE 4.0 mph6.4 kmh 30.20 in1022.7 mb 0.00 in0.0 mm 0.00 in0.0 mm 0.09 in2.3 mm
06:05 PM 27.9°F-2.3°C 11.1°F-11.6°C 50% 1.0 mph E1.6 kmh E 4.0 mph6.4 kmh 30.20 in1022.7 mb 0.00 in0.0 mm 0.00 in0.0 mm 0.09 in2.3 mm
06:12 PM 27.7°F-2.4°C 11.8°F-11.2°C 51% 1.0 mph ENE1.6 kmh ENE 4.0 mph6.4 kmh 30.19 in1022.4 mb 0.00 in0.0 mm 0.00 in0.0 mm 0.09 in2.3 mm
06:19 PM 27.0°F-2.8°C 11.1°F-11.6°C 51% 1.0 mph ENE1.6 kmh ENE 4.0 mph6.4 kmh 30.19 in1022.4 mb 0.00 in0.0 mm 0.00 in0.0 mm 0.09 in2.3 mm
06:26 PM 26.4°F-3.1°C 11.1°F-11.6°C 52% 1.0 mph ENE1.6 kmh ENE 4.0 mph6.4 kmh 30.19 in1022.4 mb 0.00 in0.0 mm 0.00 in0.0 mm 0.09 in2.3 mm
06:33 PM 26.2°F-3.2°C 11.3°F-11.5°C 53% 1.0 mph ENE1.6 kmh ENE 4.0 mph6.4 kmh 30.19 in1022.4 mb 0.00 in0.0 mm 0.00 in0.0 mm 0.09 in2.3 mm
06:40 PM 25.9°F-3.4°C 11.5°F-11.4°C 54% 1.0 mph ENE1.6 kmh ENE 3.0 mph4.8 kmh 30.19 in1022.4 mb 0.00 in0.0 mm 0.00 in0.0 mm 0.09 in2.3 mm
06:47 PM 25.9°F-3.4°C 11.5°F-11.4°C 54% 1.0 mph ENE1.6 kmh ENE 4.0 mph6.4 kmh 30.20 in1022.7 mb 0.00 in0.0 mm 0.00 in0.0 mm 0.09 in2.3 mm
06:54 PM 25.3°F-3.7°C 11.8°F-11.2°C 56% 1.0 mph ENE1.6 kmh ENE 3.0 mph4.8 kmh 30.20 in1022.7 mb 0.00 in0.0 mm 0.00 in0.0 mm 0.09 in2.3 mm
07:01 PM 25.2°F-3.8°C 11.7°F-11.3°C 56% 1.0 mph ENE1.6 kmh ENE 3.0 mph4.8 kmh 30.20 in1022.7 mb 0.00 in0.0 mm 0.00 in0.0 mm 0.09 in2.3 mm
07:08 PM 25.2°F-3.8°C 11.7°F-11.3°C 56% 1.0 mph ENE1.6 kmh ENE 3.0 mph4.8 kmh 30.20 in1022.7 mb 0.00 in0.0 mm 0.00 in0.0 mm 0.09 in2.3 mm
07:15 PM 25.2°F-3.8°C 11.1°F-11.6°C 55% 1.0 mph ENE1.6 kmh ENE 4.0 mph6.4 kmh 30.20 in1022.7 mb 0.00 in0.0 mm 0.00 in0.0 mm 0.09 in2.3 mm
07:22 PM 25.0°F-3.9°C 10.9°F-11.7°C 55% 1.0 mph ENE1.6 kmh ENE 3.0 mph4.8 kmh 30.21 in1023.0 mb 0.00 in0.0 mm 0.00 in0.0 mm 0.09 in2.3 mm
07:29 PM 24.4°F-4.2°C 11.3°F-11.5°C 57% 1.0 mph ENE1.6 kmh ENE 3.0 mph4.8 kmh 30.21 in1023.0 mb 0.00 in0.0 mm 0.00 in0.0 mm 0.09 in2.3 mm
07:36 PM 24.1°F-4.4°C 11.5°F-11.4°C 58% Calm Calm 1.0 mph1.6 kmh 30.21 in1023.0 mb 0.00 in0.0 mm 0.00 in0.0 mm 0.09 in2.3 mm
07:43 PM 24.1°F-4.4°C 11.3°F-11.5°C 58% Calm Calm 1.0 mph1.6 kmh 30.21 in1023.0 mb 0.00 in0.0 mm 0.00 in0.0 mm 0.09 in2.3 mm
07:50 PM 23.9°F-4.5°C 10.9°F-11.7°C 57% Calm Calm 3.0 mph4.8 kmh 30.21 in1023.0 mb 0.00 in0.0 mm 0.00 in0.0 mm 0.09 in2.3 mm
07:57 PM 23.7°F-4.6°C 10.8°F-11.8°C 57% 1.0 mph ENE1.6 kmh ENE 3.0 mph4.8 kmh 30.21 in1023.0 mb 0.00 in0.0 mm 0.00 in0.0 mm 0.09 in2.3 mm
08:04 PM 23.4°F-4.8°C 10.8°F-11.8°C 58% Calm Calm 1.0 mph1.6 kmh 30.21 in1023.0 mb 0.00 in0.0 mm 0.00 in0.0 mm 0.09 in2.3 mm
08:11 PM 23.2°F-4.9°C 10.9°F-11.7°C 59% Calm Calm 1.0 mph1.6 kmh 30.21 in1023.0 mb 0.00 in0.0 mm 0.00 in0.0 mm 0.09 in2.3 mm
08:18 PM 23.4°F-4.8°C 11.1°F-11.6°C 59% Calm Calm 1.0 mph1.6 kmh 30.21 in1023.0 mb 0.00 in0.0 mm 0.00 in0.0 mm 0.09 in2.3 mm
08:25 PM 23.5°F-4.7°C 11.3°F-11.5°C 59% Calm Calm 3.0 mph4.8 kmh 30.21 in1023.0 mb 0.00 in0.0 mm 0.00 in0.0 mm 0.09 in2.3 mm
08:32 PM 24.1°F-4.4°C 11.5°F-11.4°C 58% 1.0 mph ENE1.6 kmh ENE 4.0 mph6.4 kmh 30.20 in1022.7 mb 0.00 in0.0 mm 0.00 in0.0 mm 0.09 in2.3 mm
08:39 PM 24.4°F-4.2°C 11.8°F-11.2°C 58% 1.0 mph ENE1.6 kmh ENE 4.0 mph6.4 kmh 30.20 in1022.7 mb 0.00 in0.0 mm 0.00 in0.0 mm 0.09 in2.3 mm
08:46 PM 24.6°F-4.1°C 12.0°F-11.1°C 58% 1.0 mph ENE1.6 kmh ENE 3.0 mph4.8 kmh 30.20 in1022.7 mb 0.00 in0.0 mm 0.00 in0.0 mm 0.09 in2.3 mm
08:53 PM 24.6°F-4.1°C 12.4°F-10.9°C 59% Calm Calm 1.0 mph1.6 kmh 30.20 in1022.7 mb 0.00 in0.0 mm 0.00 in0.0 mm 0.09 in2.3 mm
09:00 PM 25.0°F-3.9°C 12.2°F-11.0°C 58% 1.0 mph ENE1.6 kmh ENE 5.0 mph8.0 kmh 30.19 in1022.4 mb 0.00 in0.0 mm 0.00 in0.0 mm 0.09 in2.3 mm
09:07 PM 25.3°F-3.7°C 12.2°F-11.0°C 57% 3.0 mph ENE4.8 kmh ENE 5.0 mph8.0 kmh 30.19 in1022.4 mb 0.00 in0.0 mm 0.00 in0.0 mm 0.09 in2.3 mm
09:14 PM 25.3°F-3.7°C 11.5°F-11.4°C 55% 3.0 mph NE4.8 kmh NE 8.0 mph12.9 kmh 30.18 in1022.0 mb 0.00 in0.0 mm 0.00 in0.0 mm 0.09 in2.3 mm
09:21 PM 25.5°F-3.6°C 12.0°F-11.1°C 56% 3.0 mph NE4.8 kmh NE 8.0 mph12.9 kmh 30.18 in1022.0 mb 0.00 in0.0 mm 0.00 in0.0 mm 0.09 in2.3 mm
09:28 PM 25.5°F-3.6°C 12.4°F-10.9°C 57% 1.0 mph NE1.6 kmh NE 5.0 mph8.0 kmh 30.18 in1022.0 mb 0.00 in0.0 mm 0.00 in0.0 mm 0.09 in2.3 mm
09:35 PM 25.5°F-3.6°C 12.0°F-11.1°C 56% 1.0 mph NE1.6 kmh NE 4.0 mph6.4 kmh 30.18 in1022.0 mb 0.00 in0.0 mm 0.00 in0.0 mm 0.09 in2.3 mm
09:42 PM 25.7°F-3.5°C 12.2°F-11.0°C 56% 1.0 mph NNE1.6 kmh NNE 4.0 mph6.4 kmh 30.18 in1022.0 mb 0.00 in0.0 mm 0.00 in0.0 mm 0.09 in2.3 mm
09:49 PM 25.5°F-3.6°C 12.0°F-11.1°C 56% 3.0 mph NNE4.8 kmh NNE 5.0 mph8.0 kmh 30.18 in1022.0 mb 0.00 in0.0 mm 0.00 in0.0 mm 0.09 in2.3 mm
09:56 PM 25.5°F-3.6°C 12.0°F-11.1°C 56% 3.0 mph NNE4.8 kmh NNE 5.0 mph8.0 kmh 30.18 in1022.0 mb 0.00 in0.0 mm 0.00 in0.0 mm 0.09 in2.3 mm
10:03 PM 25.5°F-3.6°C 12.7°F-10.7°C 58% 3.0 mph NE4.8 kmh NE 5.0 mph8.0 kmh 30.18 in1022.0 mb 0.00 in0.0 mm 0.00 in0.0 mm 0.09 in2.3 mm
10:10 PM 25.5°F-3.6°C 12.0°F-11.1°C 56% 3.0 mph NE4.8 kmh NE 5.0 mph8.0 kmh 30.18 in1022.0 mb 0.00 in0.0 mm 0.00 in0.0 mm 0.09 in2.3 mm
10:17 PM 25.3°F-3.7°C 12.7°F-10.7°C 58% 3.0 mph NE4.8 kmh NE 5.0 mph8.0 kmh 30.18 in1022.0 mb 0.00 in0.0 mm 0.00 in0.0 mm 0.09 in2.3 mm
10:24 PM 25.3°F-3.7°C 12.7°F-10.7°C 58% 3.0 mph NE4.8 kmh NE 5.0 mph8.0 kmh 30.18 in1022.0 mb 0.00 in0.0 mm 0.00 in0.0 mm 0.09 in2.3 mm
10:31 PM 25.3°F-3.7°C 12.9°F-10.6°C 59% 1.0 mph NE1.6 kmh NE 4.0 mph6.4 kmh 30.18 in1022.0 mb 0.00 in0.0 mm 0.00 in0.0 mm 0.09 in2.3 mm
10:38 PM 25.2°F-3.8°C 13.3°F-10.4°C 60% Calm Calm 3.0 mph4.8 kmh 30.18 in1022.0 mb 0.00 in0.0 mm 0.00 in0.0 mm 0.09 in2.3 mm
10:45 PM 25.2°F-3.8°C 13.5°F-10.3°C 61% Calm Calm 1.0 mph1.6 kmh 30.18 in1022.0 mb 0.00 in0.0 mm 0.00 in0.0 mm 0.09 in2.3 mm
10:52 PM 25.2°F-3.8°C 13.3°F-10.4°C 60% 1.0 mph NE1.6 kmh NE 4.0 mph6.4 kmh 30.18 in1022.0 mb 0.00 in0.0 mm 0.00 in0.0 mm 0.09 in2.3 mm
10:59 PM 25.2°F-3.8°C 13.1°F-10.5°C 60% 3.0 mph NE4.8 kmh NE 4.0 mph6.4 kmh 30.17 in1021.7 mb 0.00 in0.0 mm 0.00 in0.0 mm 0.09 in2.3 mm
11:06 PM 25.2°F-3.8°C 13.1°F-10.5°C 60% 1.0 mph NE1.6 kmh NE 4.0 mph6.4 kmh 30.17 in1021.7 mb 0.00 in0.0 mm 0.00 in0.0 mm 0.09 in2.3 mm
11:13 PM 25.2°F-3.8°C 13.3°F-10.4°C 60% 1.0 mph NE1.6 kmh NE 3.0 mph4.8 kmh 30.17 in1021.7 mb 0.00 in0.0 mm 0.00 in0.0 mm 0.09 in2.3 mm
11:20 PM 25.2°F-3.8°C 13.5°F-10.3°C 61% 1.0 mph NE1.6 kmh NE 3.0 mph4.8 kmh 30.17 in1021.7 mb 0.00 in0.0 mm 0.00 in0.0 mm 0.09 in2.3 mm
11:27 PM 25.2°F-3.8°C 13.6°F-10.2°C 61% 1.0 mph NE1.6 kmh NE 4.0 mph6.4 kmh 30.17 in1021.7 mb 0.00 in0.0 mm 0.00 in0.0 mm 0.09 in2.3 mm
11:34 PM 25.3°F-3.7°C 13.6°F-10.2°C 61% 1.0 mph NE1.6 kmh NE 3.0 mph4.8 kmh 30.17 in1021.7 mb 0.00 in0.0 mm 0.00 in0.0 mm 0.09 in2.3 mm
11:41 PM 25.3°F-3.7°C 13.8°F-10.1°C 61% 1.0 mph NE1.6 kmh NE 4.0 mph6.4 kmh 30.17 in1021.7 mb 0.00 in0.0 mm 0.00 in0.0 mm 0.09 in2.3 mm
11:48 PM 25.5°F-3.6°C 13.8°F-10.1°C 61% 1.0 mph NE1.6 kmh NE 3.0 mph4.8 kmh 30.16 in1021.3 mb 0.00 in0.0 mm 0.00 in0.0 mm 0.09 in2.3 mm
11:55 PM 25.5°F-3.6°C 14.0°F-10.0°C 61% 1.0 mph NE1.6 kmh NE 3.0 mph4.8 kmh 30.16 in1021.3 mb 0.00 in0.0 mm 0.00 in0.0 mm 0.09 in2.3 mm